Hlavní strana
METAR-TAF:

METAR-TAF

Letiště :

Shelbyville Municipal Airport

Shelbyville, Indiana, Spojené státy americké

zeměpisná šířka: 39-35-08N, zeměpisná délka: 085-48-00W, výška: 245 m

Aktuální stav počasí

Zpráva byla vytvořena před 23 minutami, v 09:53 UTC
Západní vítr 14 kt s nárazy do 23 kt
Teplota -1°C
Vlhkost vzduchu 74%
Tlak 1016 hPa
Viditelnost: 16.1 km
Oblačno až skoro zataženo ve výšce 2700 ft
Zataženo ve výšce 5000 ft

METAR: KGEZ 180953Z AUTO 27014G23KT 10SM BKN027 OVC050 M01/M05 A3001 RMK AO2 SLP171 T10111050

Čas: 05:16 (10:16 UTC)


TAF: chybějící

Stav a předpovědi počasí z více než 4 000 letišť (zprávy METAR a TAF).

Červené a žluté tečky na mapě představují dostupné meteorologické stanice.

Když kurzor umístíte na tečku, zobrazí se název stanice.

Pak kliknutím zobrazíte stav a předpověď počasí.

Chcete-li změnit mapu, kliknutím na zelené tlačítko se znaménkem +mapu přiblížíte, kliknutím na zelené tlačítko se znaménkem – mapu oddálíte a kliknutím na zelené šipky přejdete na sousední mapy.


METAR-TAF: